createdAt,value
2018-02-08T00:00:33.925Z,1015.78
2018-02-08T00:01:33.948Z,1015.75
2018-02-08T00:02:33.961Z,1015.77
2018-02-08T00:03:33.985Z,1015.77
2018-02-08T00:04:33.998Z,1015.78
2018-02-08T00:05:34.014Z,1015.82
2018-02-08T00:06:34.028Z,1015.85
2018-02-08T00:07:34.049Z,1015.86
2018-02-08T00:08:34.168Z,1015.86
2018-02-08T00:09:34.087Z,1015.88
2018-02-08T00:10:34.101Z,1015.85
2018-02-08T00:11:34.116Z,1015.88
2018-02-08T00:12:34.136Z,1015.88
2018-02-08T00:13:34.158Z,1015.88
2018-02-08T00:14:34.177Z,1015.88
2018-02-08T00:15:34.188Z,1015.94
2018-02-08T00:16:34.206Z,1015.94
2018-02-08T00:17:34.225Z,1015.95
2018-02-08T00:18:34.238Z,1015.97
2018-02-08T00:19:34.263Z,1015.95
2018-02-08T00:20:34.275Z,1015.98
2018-02-08T00:21:34.301Z,1015.98
2018-02-08T00:22:34.323Z,1016.00
2018-02-08T00:23:34.349Z,1016.05
2018-02-08T00:24:34.343Z,1016.03
2018-02-08T00:25:34.362Z,1016.05
2018-02-08T00:26:34.379Z,1016.03
2018-02-08T00:27:34.398Z,1016.02
2018-02-08T00:28:34.418Z,1016.01
2018-02-08T00:29:34.435Z,1016.02
2018-02-08T00:30:34.447Z,1016.01
2018-02-08T00:31:34.466Z,1015.99
2018-02-08T00:32:34.480Z,1015.99
2018-02-08T00:33:34.506Z,1015.99
2018-02-08T00:34:34.519Z,1015.97
2018-02-08T00:35:34.536Z,1015.99
2018-02-08T00:36:34.562Z,1015.95
2018-02-08T00:37:34.574Z,1015.95
2018-02-08T00:38:34.588Z,1015.93
2018-02-08T00:39:34.605Z,1015.94
2018-02-08T00:40:34.620Z,1015.92
2018-02-08T00:41:34.641Z,1015.95
2018-02-08T00:42:34.655Z,1015.97
2018-02-08T00:43:34.679Z,1015.98
2018-02-08T00:44:34.696Z,1015.99
2018-02-08T00:45:34.710Z,1016.00
2018-02-08T00:46:34.735Z,1016.00
2018-02-08T00:47:34.799Z,1015.99
2018-02-08T00:48:34.762Z,1016.01
2018-02-08T00:49:34.781Z,1016.02
2018-02-08T00:50:34.793Z,1016.00
2018-02-08T00:51:34.818Z,1016.00
2018-02-08T00:52:34.830Z,1016.05
2018-02-08T00:53:34.852Z,1016.02
2018-02-08T00:54:34.864Z,1016.04
2018-02-08T00:55:34.886Z,1016.03
2018-02-08T00:56:34.908Z,1016.07
2018-02-08T00:57:34.929Z,1016.03
2018-02-08T00:58:34.935Z,1016.02
2018-02-08T00:59:34.954Z,1016.05
2018-02-08T01:00:34.974Z,1016.06
2018-02-08T01:01:34.985Z,1016.08
2018-02-08T01:02:35.006Z,1016.10
2018-02-08T01:03:35.026Z,1016.14
2018-02-08T01:04:35.053Z,1016.12
2018-02-08T01:05:35.061Z,1016.14
2018-02-08T01:06:35.070Z,1016.12
2018-02-08T01:07:35.091Z,1016.10
2018-02-08T01:08:35.111Z,1016.11
2018-02-08T01:09:35.130Z,1016.13
2018-02-08T01:10:35.141Z,1016.09
2018-02-08T01:11:35.159Z,1016.13
2018-02-08T01:12:35.180Z,1016.14
2018-02-08T01:13:35.202Z,1016.15
2018-02-08T01:14:35.212Z,1016.14
2018-02-08T01:15:35.230Z,1016.18
2018-02-08T01:16:35.246Z,1016.14
2018-02-08T01:17:35.277Z,1016.19
2018-02-08T01:18:35.282Z,1016.18
2018-02-08T01:19:35.306Z,1016.17
2018-02-08T01:20:35.315Z,1016.13
2018-02-08T01:21:35.329Z,1016.15
2018-02-08T01:22:35.352Z,1016.11
2018-02-08T01:23:35.367Z,1016.12
2018-02-08T01:24:35.388Z,1016.16
2018-02-08T01:25:35.409Z,1016.19
2018-02-08T01:26:35.419Z,1016.17
2018-02-08T01:27:35.445Z,1016.18
2018-02-08T01:28:35.453Z,1016.15
2018-02-08T01:29:35.484Z,1016.17
2018-02-08T01:30:35.486Z,1016.17
2018-02-08T01:31:35.510Z,1016.18
2018-02-08T01:32:35.522Z,1016.18
2018-02-08T01:33:35.546Z,1016.19
2018-02-08T01:34:35.555Z,1016.17
2018-02-08T01:35:35.580Z,1016.20
2018-02-08T01:36:35.594Z,1016.21
2018-02-08T01:37:35.611Z,1016.19
2018-02-08T01:38:35.623Z,1016.20
2018-02-08T01:39:35.653Z,1016.22
2018-02-08T01:40:35.661Z,1016.21
2018-02-08T01:41:35.732Z,1016.18
2018-02-08T01:42:35.698Z,1016.18
2018-02-08T01:43:35.769Z,1016.21
2018-02-08T01:44:35.728Z,1016.24
2018-02-08T01:45:35.746Z,1016.22
2018-02-08T01:46:35.762Z,1016.25
2018-02-08T01:47:35.785Z,1016.27
2018-02-08T01:48:35.797Z,1016.29
2018-02-08T01:49:35.817Z,1016.27
2018-02-08T01:50:35.833Z,1016.29
2018-02-08T01:51:35.849Z,1016.31
2018-02-08T01:52:35.866Z,1016.30
2018-02-08T01:53:35.886Z,1016.29
2018-02-08T01:54:35.908Z,1016.29
2018-02-08T01:55:35.918Z,1016.26
2018-02-08T01:56:35.954Z,1016.24
2018-02-08T01:57:35.959Z,1016.22
2018-02-08T01:58:36.018Z,1016.23
2018-02-08T01:59:35.989Z,1016.21
2018-02-08T02:00:36.004Z,1016.16
2018-02-08T02:01:36.034Z,1016.17
2018-02-08T02:02:36.041Z,1016.16
2018-02-08T02:03:36.055Z,1016.15
2018-02-08T02:04:36.075Z,1016.19
2018-02-08T02:05:36.094Z,1016.19
2018-02-08T02:06:36.106Z,1016.15
2018-02-08T02:07:36.124Z,1016.16
2018-02-08T02:08:36.141Z,1016.13
2018-02-08T02:09:36.165Z,1016.08
2018-02-08T02:10:36.181Z,1016.13
2018-02-08T02:11:36.196Z,1016.14
2018-02-08T02:12:36.221Z,1016.15
2018-02-08T02:13:36.241Z,1016.17
2018-02-08T02:14:36.265Z,1016.13
2018-02-08T02:15:36.266Z,1016.14
2018-02-08T02:16:36.280Z,1016.16
2018-02-08T02:17:36.298Z,1016.17
2018-02-08T02:18:36.332Z,1016.17
2018-02-08T02:19:36.332Z,1016.17
2018-02-08T02:20:36.366Z,1016.14
2018-02-08T02:21:36.365Z,1016.16
2018-02-08T02:22:36.488Z,1016.13
2018-02-08T02:23:36.401Z,1016.14
2018-02-08T02:24:36.460Z,1016.14
2018-02-08T02:25:36.442Z,1016.16
2018-02-08T02:26:36.448Z,1016.14
2018-02-08T02:27:36.468Z,1016.14
2018-02-08T02:28:36.489Z,1016.15
2018-02-08T02:29:36.503Z,1016.16
2018-02-08T02:30:36.529Z,1016.17
2018-02-08T02:31:36.537Z,1016.16
2018-02-08T02:32:36.557Z,1016.16
2018-02-08T02:33:36.570Z,1016.15
2018-02-08T02:34:36.583Z,1016.18
2018-02-08T02:35:36.608Z,1016.17
2018-02-08T02:36:36.625Z,1016.16
2018-02-08T02:37:36.638Z,1016.14
2018-02-08T02:38:36.669Z,1016.17
2018-02-08T02:39:36.675Z,1016.18
2018-02-08T02:40:36.693Z,1016.19
2018-02-08T02:41:36.711Z,1016.18
2018-02-08T02:42:36.723Z,1016.19
2018-02-08T02:43:36.740Z,1016.19
2018-02-08T02:44:36.759Z,1016.19
2018-02-08T02:45:36.780Z,1016.19
2018-02-08T02:46:36.794Z,1016.20
2018-02-08T02:47:36.807Z,1016.20
2018-02-08T02:48:36.833Z,1016.17
2018-02-08T02:49:36.850Z,1016.19
2018-02-08T02:50:36.858Z,1016.17
2018-02-08T02:51:36.880Z,1016.21
2018-02-08T02:52:36.896Z,1016.17
2018-02-08T02:53:36.917Z,1016.19
2018-02-08T02:54:36.926Z,1016.19
2018-02-08T02:55:36.943Z,1016.19
2018-02-08T02:56:36.964Z,1016.19
2018-02-08T02:57:36.979Z,1016.19
2018-02-08T02:58:37.003Z,1016.18
2018-02-08T02:59:37.014Z,1016.17
2018-02-08T03:00:37.031Z,1016.15
2018-02-08T03:01:37.052Z,1016.17
2018-02-08T03:02:37.064Z,1016.12
2018-02-08T03:03:37.091Z,1016.16
2018-02-08T03:04:37.098Z,1016.15
2018-02-08T03:05:37.124Z,1016.12
2018-02-08T03:06:37.136Z,1016.12
2018-02-08T03:07:37.148Z,1016.16
2018-02-08T03:08:37.171Z,1016.15
2018-02-08T03:09:37.186Z,1016.13
2018-02-08T03:10:37.197Z,1016.14
2018-02-08T03:11:37.223Z,1016.18
2018-02-08T03:12:37.238Z,1016.15
2018-02-08T03:13:37.270Z,1016.17
2018-02-08T03:14:37.271Z,1016.20
2018-02-08T03:15:37.287Z,1016.24
2018-02-08T03:16:37.313Z,1016.24
2018-02-08T03:17:37.316Z,1016.27
2018-02-08T03:18:37.341Z,1016.26
2018-02-08T03:19:37.365Z,1016.23
2018-02-08T03:20:37.372Z,1016.26
2018-02-08T03:21:37.395Z,1016.27
2018-02-08T03:22:37.414Z,1016.28
2018-02-08T03:23:37.428Z,1016.29
2018-02-08T03:24:37.439Z,1016.28
2018-02-08T03:25:37.459Z,1016.28
2018-02-08T03:26:37.487Z,1016.26
2018-02-08T03:27:37.491Z,1016.26
2018-02-08T03:28:37.515Z,1016.26
2018-02-08T03:29:37.528Z,1016.25
2018-02-08T03:30:37.544Z,1016.27
2018-02-08T03:31:37.567Z,1016.24
2018-02-08T03:32:37.595Z,1016.21
2018-02-08T03:33:37.646Z,1016.26
2018-02-08T03:34:37.611Z,1016.25
2018-02-08T03:35:37.622Z,1016.25
2018-02-08T03:36:37.643Z,1016.23
2018-02-08T03:37:37.668Z,1016.26
2018-02-08T03:38:37.696Z,1016.23
2018-02-08T03:39:37.697Z,1016.25
2018-02-08T03:40:37.720Z,1016.25
2018-02-08T03:41:37.727Z,1016.23
2018-02-08T03:42:37.743Z,1016.21
2018-02-08T03:43:37.766Z,1016.19
2018-02-08T03:44:37.908Z,1016.19
2018-02-08T03:45:37.792Z,1016.18
2018-02-08T03:46:37.816Z,1016.16
2018-02-08T03:47:37.834Z,1016.16
2018-02-08T03:48:37.864Z,1016.19
2018-02-08T03:49:37.882Z,1016.18
2018-02-08T03:50:37.880Z,1016.18
2018-02-08T03:51:37.918Z,1016.18
2018-02-08T03:52:37.915Z,1016.19
2018-02-08T03:53:37.940Z,1016.15
2018-02-08T03:54:37.946Z,1016.20
2018-02-08T03:55:37.974Z,1016.19
2018-02-08T03:56:37.978Z,1016.16
2018-02-08T03:57:38.005Z,1016.17
2018-02-08T03:58:38.030Z,1016.17
2018-02-08T03:59:38.088Z,1016.19
2018-02-08T04:00:38.045Z,1016.16
2018-02-08T04:01:38.081Z,1016.17
2018-02-08T04:02:38.086Z,1016.19
2018-02-08T04:03:38.101Z,1016.22
2018-02-08T04:04:38.131Z,1016.23
2018-02-08T04:05:38.136Z,1016.23
2018-02-08T04:06:38.149Z,1016.26
2018-02-08T04:07:38.169Z,1016.26
2018-02-08T04:08:38.195Z,1016.27
2018-02-08T04:09:38.213Z,1016.28
2018-02-08T04:10:38.221Z,1016.33
2018-02-08T04:11:38.233Z,1016.34
2018-02-08T04:12:38.260Z,1016.35
2018-02-08T04:13:38.269Z,1016.37
2018-02-08T04:14:38.297Z,1016.38
2018-02-08T04:15:38.313Z,1016.38
2018-02-08T04:16:38.316Z,1016.39
2018-02-08T04:17:38.336Z,1016.36
2018-02-08T04:18:38.347Z,1016.40
2018-02-08T04:19:38.375Z,1016.37
2018-02-08T04:20:38.385Z,1016.38
2018-02-08T04:21:38.402Z,1016.38
2018-02-08T04:22:38.417Z,1016.32
2018-02-08T04:23:38.436Z,1016.37
2018-02-08T04:24:38.452Z,1016.37
2018-02-08T04:25:38.483Z,1016.33
2018-02-08T04:26:38.479Z,1016.40
2018-02-08T04:27:38.502Z,1016.39
2018-02-08T04:28:38.517Z,1016.41
2018-02-08T04:29:38.532Z,1016.36
2018-02-08T04:30:38.572Z,1016.38
2018-02-08T04:31:38.576Z,1016.41
2018-02-08T04:32:38.591Z,1016.37
2018-02-08T04:33:38.608Z,1016.38
2018-02-08T04:34:38.620Z,1016.41
2018-02-08T04:35:38.643Z,1016.39
2018-02-08T04:36:38.651Z,1016.41
2018-02-08T04:37:38.667Z,1016.44
2018-02-08T04:38:38.682Z,1016.48
2018-02-08T04:39:38.705Z,1016.52
2018-02-08T04:40:38.724Z,1016.50
2018-02-08T04:41:38.747Z,1016.53
2018-02-08T04:42:38.753Z,1016.53
2018-02-08T04:43:38.768Z,1016.52
2018-02-08T04:44:38.794Z,1016.50
2018-02-08T04:45:38.801Z,1016.50
2018-02-08T04:46:38.833Z,1016.49
2018-02-08T04:47:38.848Z,1016.54
2018-02-08T04:48:38.851Z,1016.54
2018-02-08T04:49:38.870Z,1016.53
2018-02-08T04:50:38.887Z,1016.55
2018-02-08T04:51:38.915Z,1016.57
2018-02-08T04:52:38.920Z,1016.56
2018-02-08T04:53:38.936Z,1016.59
2018-02-08T04:54:38.967Z,1016.55
2018-02-08T04:55:38.971Z,1016.62
2018-02-08T04:56:38.986Z,1016.61
2018-02-08T04:57:39.008Z,1016.62
2018-02-08T04:58:39.026Z,1016.63
2018-02-08T04:59:39.032Z,1016.65
2018-02-08T05:00:39.051Z,1016.65
2018-02-08T05:01:39.082Z,1016.64
2018-02-08T05:02:39.093Z,1016.67
2018-02-08T05:03:39.107Z,1016.67
2018-02-08T05:04:39.121Z,1016.67
2018-02-08T05:05:39.146Z,1016.67
2018-02-08T05:06:39.150Z,1016.70
2018-02-08T05:07:39.180Z,1016.74
2018-02-08T05:08:39.193Z,1016.77
2018-02-08T05:09:39.202Z,1016.79
2018-02-08T05:10:39.217Z,1016.76
2018-02-08T05:11:39.235Z,1016.81
2018-02-08T05:12:39.264Z,1016.78
2018-02-08T05:13:39.270Z,1016.78
2018-02-08T05:14:39.286Z,1016.79
2018-02-08T05:15:39.298Z,1016.76
2018-02-08T05:16:39.320Z,1016.78
2018-02-08T05:17:39.332Z,1016.79
2018-02-08T05:18:39.352Z,1016.79
2018-02-08T05:19:39.366Z,1016.80
2018-02-08T05:20:39.382Z,1016.78
2018-02-08T05:21:39.400Z,1016.81
2018-02-08T05:22:39.420Z,1016.77
2018-02-08T05:23:39.446Z,1016.77
2018-02-08T05:24:39.459Z,1016.79
2018-02-08T05:25:39.477Z,1016.82
2018-02-08T05:26:39.484Z,1016.79
2018-02-08T05:27:39.500Z,1016.80
2018-02-08T05:28:39.531Z,1016.83
2018-02-08T05:29:39.537Z,1016.82
2018-02-08T05:30:39.553Z,1016.84
2018-02-08T05:31:39.569Z,1016.83
2018-02-08T05:32:39.585Z,1016.87
2018-02-08T05:33:39.605Z,1016.89
2018-02-08T05:34:39.626Z,1016.89
2018-02-08T05:35:39.635Z,1016.86
2018-02-08T05:36:39.657Z,1016.91
2018-02-08T05:37:39.681Z,1016.90
2018-02-08T05:38:39.682Z,1016.92
2018-02-08T05:39:39.703Z,1016.94
2018-02-08T05:40:39.718Z,1016.92
2018-02-08T05:41:39.733Z,1016.94
2018-02-08T05:42:39.752Z,1016.93
2018-02-08T05:43:39.777Z,1016.96
2018-02-08T05:44:39.783Z,1016.90
2018-02-08T05:45:39.798Z,1016.93
2018-02-08T05:46:39.821Z,1016.96
2018-02-08T05:47:39.963Z,1016.96
2018-02-08T05:48:39.863Z,1017.02
2018-02-08T05:49:39.875Z,1017.03
2018-02-08T05:50:39.881Z,1017.01
2018-02-08T05:51:39.906Z,1017.03
2018-02-08T05:52:39.915Z,1017.05
2018-02-08T05:53:39.934Z,1017.07
2018-02-08T05:54:39.962Z,1017.06
2018-02-08T05:55:39.976Z,1017.06
2018-02-08T05:56:39.985Z,1017.08
2018-02-08T05:57:40.005Z,1017.08
2018-02-08T05:58:40.018Z,1017.07
2018-02-08T05:59:40.044Z,1017.06
2018-02-08T06:00:40.108Z,1017.05
2018-02-08T06:01:40.077Z,1017.07
2018-02-08T06:02:40.088Z,1017.08
2018-02-08T06:03:40.099Z,1017.12
2018-02-08T06:04:40.133Z,1017.09
2018-02-08T06:05:40.134Z,1017.09
2018-02-08T06:06:40.157Z,1017.09
2018-02-08T06:07:40.165Z,1017.12
2018-02-08T06:08:40.184Z,1017.10
2018-02-08T06:09:40.200Z,1017.13
2018-02-08T06:10:40.220Z,1017.09
2018-02-08T06:11:40.236Z,1017.09
2018-02-08T06:12:40.256Z,1017.13
2018-02-08T06:13:40.308Z,1017.15
2018-02-08T06:14:40.285Z,1017.14
2018-02-08T06:15:40.306Z,1017.16
2018-02-08T06:16:40.327Z,1017.17
2018-02-08T06:17:40.351Z,1017.18
2018-02-08T06:18:40.345Z,1017.17
2018-02-08T06:19:40.372Z,1017.22
2018-02-08T06:20:40.381Z,1017.20
2018-02-08T06:21:40.400Z,1017.19
2018-02-08T06:22:40.413Z,1017.18
2018-02-08T06:23:40.434Z,1017.20
2018-02-08T06:24:40.451Z,1017.18
2018-02-08T06:25:40.463Z,1017.21
2018-02-08T06:26:40.482Z,1017.22
2018-02-08T06:27:40.499Z,1017.22
2018-02-08T06:28:40.519Z,1017.26
2018-02-08T06:29:40.551Z,1017.24
2018-02-08T06:30:40.543Z,1017.29
2018-02-08T06:31:40.572Z,1017.28
2018-02-08T06:32:40.579Z,1017.31
2018-02-08T06:33:40.594Z,1017.28
2018-02-08T06:34:40.615Z,1017.29
2018-02-08T06:35:40.634Z,1017.30
2018-02-08T06:36:40.652Z,1017.34
2018-02-08T06:37:40.666Z,1017.32
2018-02-08T06:38:40.679Z,1017.35
2018-02-08T06:39:40.708Z,1017.36
2018-02-08T06:40:40.712Z,1017.31
2018-02-08T06:41:40.731Z,1017.34
2018-02-08T06:42:40.760Z,1017.35
2018-02-08T06:43:40.761Z,1017.32
2018-02-08T06:44:40.780Z,1017.34
2018-02-08T06:45:40.797Z,1017.35
2018-02-08T06:46:40.856Z,1017.38
2018-02-08T06:47:40.840Z,1017.41
2018-02-08T06:48:40.846Z,1017.44
2018-02-08T06:49:40.863Z,1017.45
2018-02-08T06:50:40.888Z,1017.51
2018-02-08T06:51:40.893Z,1017.48
2018-02-08T06:52:40.911Z,1017.52
2018-02-08T06:53:40.932Z,1017.54
2018-02-08T06:54:40.950Z,1017.54
2018-02-08T06:55:40.963Z,1017.52
2018-02-08T06:56:40.977Z,1017.52
2018-02-08T06:57:41.004Z,1017.53
2018-02-08T06:58:41.013Z,1017.51
2018-02-08T06:59:41.029Z,1017.52
2018-02-08T07:00:41.049Z,1017.53
2018-02-08T07:01:41.066Z,1017.53
2018-02-08T07:02:41.078Z,1017.53
2018-02-08T07:03:41.108Z,1017.53
2018-02-08T07:04:41.113Z,1017.54
2018-02-08T07:05:41.129Z,1017.57
2018-02-08T07:06:41.145Z,1017.59
2018-02-08T07:07:41.162Z,1017.61
2018-02-08T07:08:41.182Z,1017.58
2018-02-08T07:09:41.194Z,1017.55
2018-02-08T07:10:41.211Z,1017.57
2018-02-08T07:11:41.237Z,1017.55
2018-02-08T07:12:41.246Z,1017.54
2018-02-08T07:13:41.260Z,1017.58
2018-02-08T07:14:41.290Z,1017.57
2018-02-08T07:15:41.297Z,1017.63
2018-02-08T07:16:41.308Z,1017.57
2018-02-08T07:17:41.342Z,1017.57
2018-02-08T07:18:41.342Z,1017.57
2018-02-08T07:19:41.361Z,1017.59
2018-02-08T07:20:41.374Z,1017.57
2018-02-08T07:21:41.392Z,1017.60
2018-02-08T07:22:41.419Z,1017.62
2018-02-08T07:23:41.426Z,1017.60
2018-02-08T07:24:41.443Z,1017.62
2018-02-08T07:25:41.461Z,1017.59
2018-02-08T07:26:41.484Z,1017.61
2018-02-08T07:27:41.489Z,1017.63
2018-02-08T07:28:41.512Z,1017.59
2018-02-08T07:29:41.537Z,1017.61
2018-02-08T07:30:41.543Z,1017.63
2018-02-08T07:31:41.554Z,1017.63
2018-02-08T07:32:41.577Z,1017.64
2018-02-08T07:33:41.598Z,1017.61
2018-02-08T07:34:41.608Z,1017.61
2018-02-08T07:35:41.632Z,1017.63
2018-02-08T07:36:41.648Z,1017.60
2018-02-08T07:37:41.900Z,1017.62
2018-02-08T07:38:41.672Z,1017.66
2018-02-08T07:39:41.736Z,1017.62
2018-02-08T07:40:41.710Z,1017.61
2018-02-08T07:41:41.730Z,1017.64
2018-02-08T07:42:41.747Z,1017.61
2018-02-08T07:43:41.765Z,1017.61
2018-02-08T07:44:41.776Z,1017.67
2018-02-08T07:45:41.798Z,1017.63
2018-02-08T07:46:41.810Z,1017.64
2018-02-08T07:47:41.832Z,1017.64
2018-02-08T07:48:41.839Z,1017.67
2018-02-08T07:49:41.855Z,1017.66
2018-02-08T07:50:41.877Z,1017.68
2018-02-08T07:51:41.896Z,1017.64
2018-02-08T07:52:41.950Z,1017.64
2018-02-08T07:53:41.924Z,1017.71
2018-02-08T07:54:41.950Z,1017.71
2018-02-08T07:55:41.988Z,1017.69
2018-02-08T07:56:41.982Z,1017.74
2018-02-08T07:57:41.988Z,1017.72
2018-02-08T07:58:42.011Z,1017.75
2018-02-08T07:59:42.040Z,1017.77
2018-02-08T08:00:42.054Z,1017.78
2018-02-08T08:01:42.075Z,1017.78
2018-02-08T08:02:42.080Z,1017.81
2018-02-08T08:03:42.090Z,1017.79
2018-02-08T08:04:42.126Z,1017.78
2018-02-08T08:05:42.257Z,1017.74
2018-02-08T08:06:42.138Z,1017.78
2018-02-08T08:07:42.159Z,1017.76
2018-02-08T08:08:42.176Z,1017.79
2018-02-08T08:09:42.191Z,1017.79
2018-02-08T08:10:42.205Z,1017.77
2018-02-08T08:11:42.238Z,1017.79
2018-02-08T08:12:42.250Z,1017.80
2018-02-08T08:13:42.259Z,1017.82
2018-02-08T08:14:42.275Z,1017.85
2018-02-08T08:15:42.293Z,1017.82
2018-02-08T08:16:42.309Z,1017.88
2018-02-08T08:17:42.339Z,1017.90
2018-02-08T08:18:42.355Z,1017.88
2018-02-08T08:19:42.366Z,1017.92
2018-02-08T08:20:42.379Z,1017.93
2018-02-08T08:21:42.401Z,1017.94
2018-02-08T08:22:42.414Z,1017.93
2018-02-08T08:23:42.431Z,1017.92
2018-02-08T08:24:42.443Z,1017.92
2018-02-08T08:25:42.464Z,1017.94
2018-02-08T08:26:42.490Z,1017.91
2018-02-08T08:27:42.500Z,1017.91
2018-02-08T08:28:42.510Z,1017.97
2018-02-08T08:29:42.532Z,1017.93
2018-02-08T08:30:42.548Z,1017.94
2018-02-08T08:31:42.560Z,1017.95
2018-02-08T08:32:42.587Z,1017.94
2018-02-08T08:33:42.597Z,1017.96
2018-02-08T08:34:42.615Z,1018.01
2018-02-08T08:35:42.635Z,1017.99
2018-02-08T08:36:42.653Z,1018.00
2018-02-08T08:37:42.677Z,1018.00
2018-02-08T08:38:42.683Z,1018.03
2018-02-08T08:39:42.707Z,1018.04
2018-02-08T08:40:42.720Z,1018.04
2018-02-08T08:41:42.732Z,1018.02
2018-02-08T08:42:42.884Z,1018.03
2018-02-08T08:43:42.768Z,1018.02
2018-02-08T08:44:42.783Z,1018.02
2018-02-08T08:45:42.803Z,1018.03
2018-02-08T08:46:42.817Z,1018.07
2018-02-08T08:47:42.845Z,1018.10
2018-02-08T08:48:42.853Z,1018.08
2018-02-08T08:49:42.870Z,1018.11
2018-02-08T08:50:42.891Z,1018.12
2018-02-08T08:51:42.905Z,1018.11
2018-02-08T08:52:42.926Z,1018.13
2018-02-08T08:53:42.937Z,1018.13
2018-02-08T08:54:42.951Z,1018.15
2018-02-08T08:55:42.978Z,1018.14
2018-02-08T08:56:42.987Z,1018.18
2018-02-08T08:57:43.018Z,1018.18
2018-02-08T08:58:43.025Z,1018.21
2018-02-08T08:59:43.043Z,1018.19
2018-02-08T09:00:43.065Z,1018.18
2018-02-08T09:01:43.086Z,1018.21
2018-02-08T09:02:43.106Z,1018.15
2018-02-08T09:03:43.108Z,1018.18
2018-02-08T09:04:43.137Z,1018.17
2018-02-08T09:05:43.154Z,1018.17
2018-02-08T09:06:43.159Z,1018.18
2018-02-08T09:07:43.183Z,1018.16
2018-02-08T09:08:43.198Z,1018.19
2018-02-08T09:09:43.217Z,1018.16
2018-02-08T09:10:43.238Z,1018.17
2018-02-08T09:11:43.248Z,1018.17
2018-02-08T09:12:43.267Z,1018.15
2018-02-08T09:13:43.282Z,1018.17
2018-02-08T09:14:43.300Z,1018.22
2018-02-08T09:15:43.319Z,1018.22
2018-02-08T09:16:43.340Z,1018.22
2018-02-08T09:17:43.363Z,1018.24
2018-02-08T09:18:43.371Z,1018.24
2018-02-08T09:19:43.384Z,1018.22
2018-02-08T09:20:43.402Z,1018.25
2018-02-08T09:21:43.432Z,1018.24
2018-02-08T09:22:43.442Z,1018.23
2018-02-08T09:23:43.458Z,1018.24
2018-02-08T09:24:43.474Z,1018.24
2018-02-08T09:25:43.493Z,1018.24
2018-02-08T09:26:43.511Z,1018.26
2018-02-08T09:27:43.531Z,1018.24
2018-02-08T09:28:43.543Z,1018.29
2018-02-08T09:29:43.559Z,1018.27
2018-02-08T09:30:43.577Z,1018.27
2018-02-08T09:31:43.605Z,1018.30
2018-02-08T09:32:43.617Z,1018.28
2018-02-08T09:33:43.633Z,1018.27
2018-02-08T09:34:43.659Z,1018.29
2018-02-08T09:35:43.663Z,1018.30
2018-02-08T09:36:43.745Z,1018.32
2018-02-08T09:37:43.706Z,1018.36
2018-02-08T09:38:43.719Z,1018.31
2018-02-08T09:39:43.733Z,1018.31
2018-02-08T09:40:43.761Z,1018.30
2018-02-08T09:41:43.782Z,1018.34
2018-02-08T09:42:43.818Z,1018.30
2018-02-08T09:43:43.806Z,1018.33
2018-02-08T09:44:43.825Z,1018.33
2018-02-08T09:45:43.857Z,1018.30
2018-02-08T09:46:43.873Z,1018.27
2018-02-08T09:47:43.885Z,1018.31
2018-02-08T09:48:43.890Z,1018.32
2018-02-08T09:49:43.912Z,1018.32
2018-02-08T09:50:43.924Z,1018.34
2018-02-08T09:51:43.959Z,1018.32
2018-02-08T09:52:43.964Z,1018.33
2018-02-08T09:53:43.994Z,1018.30
2018-02-08T09:54:43.997Z,1018.33
2018-02-08T09:55:44.072Z,1018.31
2018-02-08T09:56:44.034Z,1018.33
2018-02-08T09:57:44.055Z,1018.36
2018-02-08T09:58:44.066Z,1018.36
2018-02-08T09:59:44.085Z,1018.32
2018-02-08T10:00:44.111Z,1018.35
2018-02-08T10:01:44.124Z,1018.38
2018-02-08T10:02:44.145Z,1018.38
2018-02-08T10:03:44.162Z,1018.38
2018-02-08T10:04:44.178Z,1018.38
2018-02-08T10:05:44.213Z,1018.36
2018-02-08T10:06:44.226Z,1018.35
2018-02-08T10:07:44.227Z,1018.36
2018-02-08T10:08:44.306Z,1018.37
2018-02-08T10:09:44.271Z,1018.33
2018-02-08T10:10:44.293Z,1018.33
2018-02-08T10:11:44.300Z,1018.35
2018-02-08T10:12:44.328Z,1018.36
2018-02-08T10:13:44.340Z,1018.34
2018-02-08T10:14:44.359Z,1018.37
2018-02-08T10:15:44.371Z,1018.37
2018-02-08T10:16:44.390Z,1018.39
2018-02-08T10:17:44.405Z,1018.40
2018-02-08T10:18:44.425Z,1018.40
2018-02-08T10:19:44.462Z,1018.37
2018-02-08T10:20:44.462Z,1018.41
2018-02-08T10:21:44.530Z,1018.41
2018-02-08T10:22:44.499Z,1018.42
2018-02-08T10:23:44.544Z,1018.40
2018-02-08T10:24:44.537Z,1018.39
2018-02-08T10:25:44.556Z,1018.37
2018-02-08T10:26:44.567Z,1018.38
2018-02-08T10:27:44.586Z,1018.38
2018-02-08T10:28:44.613Z,1018.36
2018-02-08T10:29:44.628Z,1018.33
2018-02-08T10:30:44.640Z,1018.35
2018-02-08T10:31:44.660Z,1018.32
2018-02-08T10:32:44.679Z,1018.32
2018-02-08T10:33:44.697Z,1018.32
2018-02-08T10:34:44.723Z,1018.37
2018-02-08T10:35:44.774Z,1018.42
2018-02-08T10:36:44.759Z,1018.42
2018-02-08T10:37:44.775Z,1018.46
2018-02-08T10:38:44.795Z,1018.46
2018-02-08T10:39:44.820Z,1018.52
2018-02-08T10:40:44.838Z,1018.53
2018-02-08T10:41:44.861Z,1018.52
2018-02-08T10:42:44.875Z,1018.51
2018-02-08T10:43:44.915Z,1018.48
2018-02-08T10:44:44.925Z,1018.49
2018-02-08T10:45:44.944Z,1018.52
2018-02-08T10:46:44.970Z,1018.50
2018-02-08T10:47:44.992Z,1018.56
2018-02-08T10:48:45.022Z,1018.52
2018-02-08T10:49:45.041Z,1018.53
2018-02-08T10:50:45.064Z,1018.53
2018-02-08T10:51:45.089Z,1018.55
2018-02-08T10:52:45.130Z,1018.55
2018-02-08T10:53:45.144Z,1018.52
2018-02-08T10:54:45.167Z,1018.54
2018-02-08T10:55:45.191Z,1018.52
2018-02-08T10:56:45.224Z,1018.52
2018-02-08T10:57:45.255Z,1018.54
2018-02-08T10:58:45.269Z,1018.50
2018-02-08T10:59:45.299Z,1018.50
2018-02-08T11:00:45.336Z,1018.47
2018-02-08T11:01:45.351Z,1018.48
2018-02-08T11:02:45.382Z,1018.51
2018-02-08T11:03:45.412Z,1018.49
2018-02-08T11:04:45.436Z,1018.53
2018-02-08T11:05:45.464Z,1018.49
2018-02-08T11:06:45.492Z,1018.48
2018-02-08T11:07:45.534Z,1018.52
2018-02-08T11:08:45.548Z,1018.48
2018-02-08T11:09:45.574Z,1018.48
2018-02-08T11:10:45.598Z,1018.49
2018-02-08T11:11:45.639Z,1018.46
2018-02-08T11:12:45.662Z,1018.49
2018-02-08T11:13:45.682Z,1018.46
2018-02-08T11:14:45.712Z,1018.47
2018-02-08T11:15:45.737Z,1018.46
2018-02-08T11:16:45.766Z,1018.50
2018-02-08T11:17:45.796Z,1018.53
2018-02-08T11:18:45.823Z,1018.52
2018-02-08T11:19:45.874Z,1018.47
2018-02-08T11:20:45.874Z,1018.49
2018-02-08T11:21:45.902Z,1018.51
2018-02-08T11:22:45.936Z,1018.50
2018-02-08T11:23:45.958Z,1018.48
2018-02-08T11:24:45.987Z,1018.48
2018-02-08T11:25:46.014Z,1018.47
2018-02-08T11:26:46.036Z,1018.44
2018-02-08T11:27:46.648Z,1018.45
2018-02-08T11:28:46.090Z,1018.43
2018-02-08T11:29:46.121Z,1018.45
2018-02-08T11:30:46.155Z,1018.49
2018-02-08T11:31:46.177Z,1018.47
2018-02-08T11:32:46.194Z,1018.49
2018-02-08T11:33:46.226Z,1018.45
2018-02-08T11:34:46.302Z,1018.45
2018-02-08T11:35:46.285Z,1018.44
2018-02-08T11:36:46.314Z,1018.42
2018-02-08T11:37:46.335Z,1018.41
2018-02-08T11:38:46.358Z,1018.39
2018-02-08T11:39:46.383Z,1018.40
2018-02-08T11:40:47.138Z,1018.42
2018-02-08T11:41:46.441Z,1018.38
2018-02-08T11:42:46.463Z,1018.35
2018-02-08T11:43:46.490Z,1018.39
2018-02-08T11:44:46.516Z,1018.39
2018-02-08T11:45:46.542Z,1018.31
2018-02-08T11:46:46.566Z,1018.35
2018-02-08T11:47:46.597Z,1018.35
2018-02-08T11:48:46.624Z,1018.35
2018-02-08T11:49:46.724Z,1018.37
2018-02-08T11:50:46.674Z,1018.35
2018-02-08T11:51:46.739Z,1018.37
2018-02-08T11:52:46.724Z,1018.37
2018-02-08T11:53:46.761Z,1018.40
2018-02-08T11:54:46.778Z,1018.41
2018-02-08T11:55:46.805Z,1018.42
2018-02-08T11:56:46.825Z,1018.40
2018-02-08T11:57:46.862Z,1018.35
2018-02-08T11:58:46.874Z,1018.44
2018-02-08T11:59:46.905Z,1018.43
2018-02-08T12:00:46.934Z,1018.40
2018-02-08T12:01:46.960Z,1018.43
2018-02-08T12:02:46.982Z,1018.40
2018-02-08T12:03:47.010Z,1018.40
2018-02-08T12:04:47.043Z,1018.43
2018-02-08T12:05:47.080Z,1018.41